createdAt,value
2022-11-20T00:01:06.703Z,18.13
2022-11-20T00:03:28.934Z,12.20
2022-11-20T00:05:51.150Z,15.17
2022-11-20T00:08:13.706Z,11.30
2022-11-20T00:10:38.095Z,12.07
2022-11-20T00:13:00.575Z,12.77
2022-11-20T00:15:22.894Z,14.60
2022-11-20T00:17:45.403Z,14.83
2022-11-20T00:20:07.905Z,12.63
2022-11-20T00:22:30.117Z,12.33
2022-11-20T00:24:52.807Z,12.07
2022-11-20T00:27:14.966Z,12.97
2022-11-20T00:29:37.129Z,13.53
2022-11-20T00:31:59.336Z,18.83
2022-11-20T00:34:21.610Z,13.83
2022-11-20T00:36:43.854Z,12.97
2022-11-20T00:39:06.179Z,13.60
2022-11-20T00:41:29.388Z,14.00
2022-11-20T00:43:53.249Z,14.57
2022-11-20T00:46:18.510Z,13.53
2022-11-20T00:48:41.139Z,16.73
2022-11-20T00:51:03.813Z,14.40
2022-11-20T00:53:26.460Z,14.20
2022-11-20T00:55:59.005Z,13.10
2022-11-20T00:58:21.284Z,12.77
2022-11-20T01:00:43.478Z,14.43
2022-11-20T01:03:05.783Z,12.73
2022-11-20T01:05:28.222Z,17.03
2022-11-20T01:07:50.464Z,12.00
2022-11-20T01:10:12.755Z,12.53
2022-11-20T01:12:35.054Z,12.03
2022-11-20T01:14:57.266Z,13.03
2022-11-20T01:17:25.377Z,13.97
2022-11-20T01:19:50.015Z,12.33
2022-11-20T01:22:12.182Z,13.13
2022-11-20T01:24:34.542Z,14.33
2022-11-20T01:26:56.759Z,13.53
2022-11-20T01:29:23.692Z,13.87
2022-11-20T01:31:46.493Z,14.53
2022-11-20T01:34:10.979Z,13.17
2022-11-20T01:36:34.132Z,13.60
2022-11-20T01:38:57.582Z,13.33
2022-11-20T01:41:38.738Z,11.63
2022-11-20T01:44:01.571Z,13.07
2022-11-20T01:46:23.820Z,10.77
2022-11-20T01:48:49.869Z,12.40
2022-11-20T01:51:17.363Z,14.13
2022-11-20T01:53:39.964Z,12.37
2022-11-20T01:56:03.595Z,15.20
2022-11-20T01:58:28.862Z,12.70
2022-11-20T02:00:51.350Z,13.63
2022-11-20T02:03:16.288Z,15.00
2022-11-20T02:05:57.515Z,12.57
2022-11-20T02:08:21.012Z,13.27
2022-11-20T02:10:43.291Z,12.87
2022-11-20T02:13:24.659Z,13.97
2022-11-20T02:15:47.314Z,16.73
2022-11-20T02:18:10.926Z,17.03
2022-11-20T02:20:33.667Z,16.87
2022-11-20T02:23:08.023Z,14.67
2022-11-20T02:25:31.822Z,14.30
2022-11-20T02:27:54.013Z,17.37
2022-11-20T02:30:16.428Z,14.90
2022-11-20T02:32:39.402Z,14.23
2022-11-20T02:35:11.852Z,15.57
2022-11-20T02:37:36.226Z,16.03
2022-11-20T02:39:58.530Z,14.93
2022-11-20T02:42:20.845Z,16.10
2022-11-20T02:44:43.234Z,13.23
2022-11-20T02:47:17.774Z,13.80
2022-11-20T02:49:39.984Z,14.13
2022-11-20T02:52:02.236Z,12.73
2022-11-20T02:54:24.997Z,12.23
2022-11-20T02:56:47.284Z,14.87
2022-11-20T02:59:09.509Z,12.93
2022-11-20T03:01:31.789Z,11.93
2022-11-20T03:03:55.652Z,14.10
2022-11-20T03:06:18.457Z,12.20
2022-11-20T03:08:40.695Z,11.13
2022-11-20T03:11:07.140Z,10.27
2022-11-20T03:13:29.320Z,12.23
2022-11-20T03:15:51.644Z,11.13
2022-11-20T03:18:14.720Z,10.03
2022-11-20T03:20:37.267Z,13.33
2022-11-20T03:23:00.104Z,9.43
2022-11-20T03:25:23.589Z,9.77
2022-11-20T03:27:46.337Z,9.43
2022-11-20T03:30:09.487Z,9.37
2022-11-20T03:32:33.424Z,9.07
2022-11-20T03:34:55.880Z,9.97
2022-11-20T03:37:18.441Z,10.27
2022-11-20T03:39:40.981Z,9.00
2022-11-20T03:42:26.461Z,10.87
2022-11-20T03:44:48.891Z,10.03
2022-11-20T03:47:11.440Z,9.70
2022-11-20T03:49:34.169Z,10.50
2022-11-20T03:51:56.924Z,12.03
2022-11-20T03:54:25.297Z,11.13
2022-11-20T03:56:51.228Z,12.43
2022-11-20T03:59:16.333Z,13.37
2022-11-20T04:01:39.252Z,13.47
2022-11-20T04:04:14.624Z,14.53
2022-11-20T04:06:38.790Z,13.80
2022-11-20T04:09:08.835Z,13.33
2022-11-20T04:11:35.075Z,13.90
2022-11-20T04:13:59.429Z,16.57
2022-11-20T04:16:25.965Z,16.93
2022-11-20T04:18:48.676Z,19.20
2022-11-20T04:21:14.943Z,19.03
2022-11-20T04:23:40.727Z,17.37
2022-11-20T04:26:04.501Z,18.80
2022-11-20T04:28:26.955Z,21.90
2022-11-20T04:30:58.278Z,17.83
2022-11-20T04:33:23.926Z,20.33
2022-11-20T04:35:49.333Z,17.33
2022-11-20T04:38:14.539Z,17.30
2022-11-20T04:40:36.971Z,16.10
2022-11-20T04:42:59.617Z,16.73
2022-11-20T04:48:12.063Z,16.60
2022-11-20T04:50:39.686Z,19.37
2022-11-20T04:53:02.343Z,18.83
2022-11-20T04:55:25.188Z,19.03
2022-11-20T04:57:51.517Z,20.60
2022-11-20T05:00:14.570Z,16.53
2022-11-20T05:02:37.315Z,19.80
2022-11-20T05:05:00.068Z,20.00
2022-11-20T05:07:22.839Z,20.10
2022-11-20T05:09:46.250Z,19.90
2022-11-20T05:12:12.030Z,19.10
2022-11-20T05:14:34.400Z,22.00
2022-11-20T05:16:57.278Z,18.70
2022-11-20T05:19:20.152Z,19.97
2022-11-20T05:21:42.868Z,19.27
2022-11-20T05:24:05.724Z,20.13
2022-11-20T05:26:28.314Z,17.90
2022-11-20T05:28:51.348Z,17.33
2022-11-20T05:31:15.693Z,18.40
2022-11-20T05:33:38.726Z,19.97
2022-11-20T05:36:01.277Z,17.20
2022-11-20T05:38:29.947Z,20.30
2022-11-20T05:40:52.823Z,19.37
2022-11-20T05:43:15.872Z,17.40
2022-11-20T05:45:38.819Z,17.67
2022-11-20T05:48:01.475Z,19.93
2022-11-20T05:50:24.026Z,17.70
2022-11-20T05:52:46.572Z,15.77
2022-11-20T05:55:10.408Z,18.80
2022-11-20T05:57:32.832Z,18.23
2022-11-20T05:59:55.408Z,16.20
2022-11-20T06:02:17.946Z,15.70
2022-11-20T06:04:41.378Z,19.80
2022-11-20T06:07:04.028Z,16.40
2022-11-20T06:09:26.814Z,17.93
2022-11-20T06:11:51.629Z,18.47
2022-11-20T06:14:14.329Z,16.40
2022-11-20T06:16:36.918Z,17.27
2022-11-20T06:18:59.513Z,15.20
2022-11-20T06:21:22.780Z,15.70
2022-11-20T06:23:48.076Z,16.73
2022-11-20T06:26:15.021Z,17.00
2022-11-20T06:28:37.647Z,16.23
2022-11-20T06:31:00.423Z,14.60
2022-11-20T06:33:27.742Z,13.67
2022-11-20T06:35:53.269Z,15.83
2022-11-20T06:38:18.262Z,13.27
2022-11-20T06:40:44.192Z,12.03
2022-11-20T06:43:06.736Z,11.87
2022-11-20T06:45:29.278Z,12.00
2022-11-20T06:47:51.804Z,11.90
2022-11-20T06:50:18.760Z,12.67
2022-11-20T06:52:47.309Z,10.27
2022-11-20T06:55:10.088Z,10.80
2022-11-20T06:57:32.598Z,12.73
2022-11-20T06:59:55.138Z,10.97
2022-11-20T07:02:17.687Z,10.93
2022-11-20T07:04:43.210Z,11.80
2022-11-20T07:07:07.342Z,13.27
2022-11-20T07:09:31.967Z,11.70
2022-11-20T07:11:54.529Z,10.17
2022-11-20T07:14:17.284Z,10.57
2022-11-20T07:16:40.026Z,10.73
2022-11-20T07:19:02.578Z,12.77
2022-11-20T07:21:26.946Z,10.30
2022-11-20T07:23:49.384Z,12.53
2022-11-20T07:26:15.222Z,10.97
2022-11-20T07:28:38.267Z,10.77
2022-11-20T07:31:00.880Z,13.00
2022-11-20T07:33:23.435Z,12.50
2022-11-20T07:35:46.595Z,13.93
2022-11-20T07:38:10.090Z,10.77
2022-11-20T07:40:32.653Z,14.90
2022-11-20T07:42:56.500Z,12.23
2022-11-20T07:45:22.500Z,13.03
2022-11-20T07:47:44.931Z,12.67
2022-11-20T07:50:08.597Z,11.80
2022-11-20T07:52:31.126Z,12.97
2022-11-20T07:54:56.548Z,13.47
2022-11-20T07:57:25.682Z,11.57
2022-11-20T07:59:50.732Z,10.57
2022-11-20T08:02:13.488Z,11.07
2022-11-20T08:04:39.399Z,11.20
2022-11-20T08:07:02.018Z,11.57
2022-11-20T08:09:24.800Z,12.87
2022-11-20T08:12:06.078Z,11.63
2022-11-20T08:14:28.798Z,11.07
2022-11-20T08:16:51.494Z,12.13
2022-11-20T08:19:23.289Z,8.40
2022-11-20T08:21:46.185Z,8.20
2022-11-20T08:24:08.918Z,9.00
2022-11-20T08:26:31.341Z,8.87
2022-11-20T08:28:58.103Z,11.17
2022-11-20T08:31:20.502Z,10.73
2022-11-20T08:33:43.257Z,8.40
2022-11-20T08:36:06.363Z,11.13
2022-11-20T08:38:35.422Z,10.60
2022-11-20T08:41:18.103Z,10.63
2022-11-20T08:43:40.687Z,10.70
2022-11-20T08:46:03.437Z,7.80
2022-11-20T08:48:26.438Z,8.93
2022-11-20T08:50:49.108Z,12.47
2022-11-20T08:53:12.287Z,8.57
2022-11-20T08:55:36.738Z,9.47
2022-11-20T08:57:59.308Z,8.67
2022-11-20T09:00:21.684Z,7.70
2022-11-20T09:02:44.186Z,8.47
2022-11-20T09:05:09.571Z,10.27
2022-11-20T09:07:32.813Z,7.97
2022-11-20T09:10:22.282Z,7.70
2022-11-20T09:12:38.124Z,10.30
2022-11-20T09:15:06.408Z,14.20
2022-11-20T09:17:29.030Z,10.27
2022-11-20T09:19:51.553Z,8.37
2022-11-20T09:22:13.939Z,11.33
2022-11-20T09:24:36.310Z,6.57
2022-11-20T09:26:58.835Z,7.43
2022-11-20T09:29:21.587Z,6.53
2022-11-20T09:31:44.165Z,9.83
2022-11-20T09:34:07.289Z,6.80
2022-11-20T09:36:36.726Z,6.80
2022-11-20T09:38:59.652Z,9.80
2022-11-20T09:41:41.957Z,4.93
2022-11-20T09:44:23.882Z,5.53
2022-11-20T09:46:51.124Z,5.60
2022-11-20T09:49:30.767Z,4.90
2022-11-20T09:52:10.103Z,4.83
2022-11-20T09:54:35.182Z,6.77
2022-11-20T09:57:02.243Z,4.50
2022-11-20T09:59:54.175Z,5.83
2022-11-20T10:02:25.505Z,7.77
2022-11-20T10:04:51.344Z,6.77
2022-11-20T10:07:34.491Z,5.60
2022-11-20T10:09:57.723Z,7.80
2022-11-20T10:12:26.323Z,7.37
2022-11-20T10:15:07.996Z,5.63
2022-11-20T10:17:49.476Z,8.00
2022-11-20T10:20:18.124Z,5.37
2022-11-20T10:22:41.679Z,7.73
2022-11-20T10:25:15.245Z,6.07
2022-11-20T10:27:43.809Z,8.37
2022-11-20T10:30:12.701Z,9.70
2022-11-20T10:32:40.336Z,8.60
2022-11-20T10:35:21.347Z,7.43
2022-11-20T10:37:45.909Z,5.23
2022-11-20T10:40:25.295Z,7.53
2022-11-20T10:43:26.443Z,4.97
2022-11-20T10:45:58.775Z,6.97
2022-11-20T10:48:26.170Z,5.43
2022-11-20T10:50:55.503Z,5.63
2022-11-20T10:53:38.878Z,7.33
2022-11-20T10:56:19.725Z,5.67
2022-11-20T10:58:42.574Z,5.97
2022-11-20T11:01:07.818Z,5.57
2022-11-20T11:03:32.968Z,7.47
2022-11-20T11:06:06.029Z,7.67
2022-11-20T11:08:30.453Z,4.97
2022-11-20T11:11:00.752Z,3.43
2022-11-20T11:13:26.907Z,5.80
2022-11-20T11:15:49.396Z,6.20
2022-11-20T11:18:12.782Z,4.70
2022-11-20T11:20:35.336Z,4.30
2022-11-20T11:22:59.027Z,4.97
2022-11-20T11:25:26.416Z,4.40
2022-11-20T11:27:49.703Z,5.77
2022-11-20T11:30:19.229Z,4.73
2022-11-20T11:32:43.383Z,4.17
2022-11-20T11:35:20.606Z,4.67
2022-11-20T11:37:52.101Z,6.40
2022-11-20T11:40:23.766Z,3.50
2022-11-20T11:42:55.736Z,2.67
2022-11-20T11:45:18.742Z,3.43
2022-11-20T11:47:46.679Z,5.07
2022-11-20T11:50:20.709Z,4.37
2022-11-20T11:52:46.359Z,9.43
2022-11-20T11:55:12.038Z,4.47
2022-11-20T11:57:34.659Z,4.33
2022-11-20T12:00:06.729Z,5.80
2022-11-20T12:02:41.284Z,4.20
2022-11-20T12:05:18.820Z,6.63
2022-11-20T12:07:49.474Z,7.47
2022-11-20T12:10:30.519Z,4.83
2022-11-20T12:12:55.957Z,5.53
2022-11-20T12:15:25.345Z,5.30
2022-11-20T12:17:48.206Z,4.80
2022-11-20T12:20:15.754Z,2.30
2022-11-20T12:22:46.896Z,6.10
2022-11-20T12:25:18.512Z,5.27
2022-11-20T12:27:46.247Z,4.40
2022-11-20T12:30:21.019Z,6.60
2022-11-20T12:32:59.279Z,5.60
2022-11-20T12:35:30.602Z,4.10
2022-11-20T12:38:07.152Z,4.03
2022-11-20T12:40:36.064Z,3.07
2022-11-20T12:43:20.071Z,4.60
2022-11-20T12:46:04.967Z,3.73
2022-11-20T12:48:49.017Z,2.67
2022-11-20T12:51:30.624Z,4.63
2022-11-20T12:54:11.788Z,5.47
2022-11-20T12:56:51.144Z,4.43
2022-11-20T12:59:25.478Z,2.23
2022-11-20T13:01:53.818Z,4.33
2022-11-20T13:04:44.210Z,2.17
2022-11-20T13:07:16.706Z,5.80
2022-11-20T13:09:52.332Z,6.73
2022-11-20T13:12:27.269Z,6.60
2022-11-20T13:15:01.042Z,3.80
2022-11-20T13:17:36.538Z,4.47
2022-11-20T13:20:08.071Z,4.87
2022-11-20T13:22:33.443Z,5.93
2022-11-20T13:24:58.670Z,6.70
2022-11-20T13:27:24.836Z,5.80
2022-11-20T13:29:49.229Z,4.23
2022-11-20T13:32:16.805Z,3.97
2022-11-20T13:34:41.895Z,5.77
2022-11-20T13:37:08.869Z,3.30
2022-11-20T13:39:37.767Z,2.87
2022-11-20T13:42:04.309Z,4.73
2022-11-20T13:44:39.334Z,4.07
2022-11-20T13:47:01.862Z,5.67
2022-11-20T13:49:33.843Z,5.83
2022-11-20T13:52:13.047Z,7.83
2022-11-20T13:54:52.703Z,3.53
2022-11-20T13:57:22.221Z,5.17
2022-11-20T13:59:44.651Z,6.83
2022-11-20T14:02:16.001Z,6.53
2022-11-20T14:04:44.470Z,2.47
2022-11-20T14:07:11.063Z,3.60
2022-11-20T14:09:36.990Z,4.40
2022-11-20T14:11:59.737Z,5.03
2022-11-20T14:14:43.426Z,6.17
2022-11-20T14:17:26.424Z,6.80
2022-11-20T14:19:49.304Z,6.00
2022-11-20T14:22:32.859Z,3.83
2022-11-20T14:25:20.670Z,6.20
2022-11-20T14:27:44.844Z,7.30
2022-11-20T14:30:15.387Z,6.20
2022-11-20T14:32:38.010Z,4.30
2022-11-20T14:35:11.238Z,6.23
2022-11-20T14:37:38.996Z,4.00
2022-11-20T14:40:15.739Z,4.33
2022-11-20T14:42:38.434Z,3.90
2022-11-20T14:45:02.683Z,6.87
2022-11-20T14:48:01.556Z,4.37
2022-11-20T14:50:26.555Z,2.37
2022-11-20T14:53:02.249Z,3.83
2022-11-20T14:55:32.360Z,3.33
2022-11-20T14:57:59.337Z,2.30
2022-11-20T15:00:22.626Z,4.50
2022-11-20T15:02:46.581Z,6.30
2022-11-20T15:05:11.809Z,2.93
2022-11-20T15:07:35.739Z,7.00
2022-11-20T15:10:09.405Z,6.47
2022-11-20T15:12:32.790Z,6.53
2022-11-20T15:14:55.602Z,3.50
2022-11-20T15:17:18.436Z,3.63
2022-11-20T15:19:40.875Z,5.00
2022-11-20T15:22:03.521Z,4.40
2022-11-20T15:24:26.221Z,5.30
2022-11-20T15:26:50.019Z,3.23
2022-11-20T15:29:20.235Z,5.87
2022-11-20T15:31:56.136Z,3.77
2022-11-20T15:34:18.735Z,3.30
2022-11-20T15:36:41.539Z,4.63
2022-11-20T15:39:12.601Z,3.63
2022-11-20T15:41:35.890Z,2.27
2022-11-20T15:44:14.204Z,4.70
2022-11-20T15:46:45.443Z,3.37
2022-11-20T15:49:10.850Z,3.43
2022-11-20T15:51:38.317Z,3.60
2022-11-20T15:54:00.740Z,3.20
2022-11-20T15:56:23.292Z,9.80
2022-11-20T15:58:45.923Z,4.97
2022-11-20T16:01:12.293Z,6.33
2022-11-20T16:03:34.740Z,4.53
2022-11-20T16:05:59.820Z,6.67
2022-11-20T16:08:22.345Z,4.87
2022-11-20T16:11:04.240Z,3.40
2022-11-20T16:13:45.519Z,5.07
2022-11-20T16:16:11.440Z,6.47
2022-11-20T16:18:37.124Z,4.83
2022-11-20T16:20:59.561Z,3.00
2022-11-20T16:23:31.049Z,3.63
2022-11-20T16:25:55.428Z,2.80
2022-11-20T16:28:19.357Z,3.83
2022-11-20T16:30:45.652Z,5.77
2022-11-20T16:33:13.299Z,3.00
2022-11-20T16:35:38.084Z,4.17
2022-11-20T16:40:44.479Z,5.00
2022-11-20T16:43:12.669Z,6.00
2022-11-20T16:45:35.389Z,3.57
2022-11-20T16:48:04.174Z,2.97
2022-11-20T16:50:26.582Z,3.73
2022-11-20T16:52:49.415Z,2.37
2022-11-20T16:55:20.612Z,2.67
2022-11-20T16:57:45.215Z,2.37
2022-11-20T17:00:16.934Z,3.03
2022-11-20T17:02:39.509Z,2.90
2022-11-20T17:05:01.768Z,2.37
2022-11-20T17:07:24.036Z,3.73
2022-11-20T17:09:46.386Z,2.13
2022-11-20T17:12:08.643Z,3.67
2022-11-20T17:14:30.919Z,2.40
2022-11-20T17:16:53.132Z,2.40
2022-11-20T17:19:15.808Z,2.40
2022-11-20T17:21:39.384Z,2.60
2022-11-20T17:24:03.272Z,2.43
2022-11-20T17:26:35.224Z,2.20
2022-11-20T17:29:02.606Z,2.53
2022-11-20T17:31:24.884Z,2.80
2022-11-20T17:33:47.599Z,2.53
2022-11-20T17:36:10.700Z,2.23
2022-11-20T17:38:33.072Z,3.40
2022-11-20T17:41:02.131Z,2.03
2022-11-20T17:43:24.433Z,2.40
2022-11-20T17:45:46.876Z,2.57
2022-11-20T17:48:09.049Z,3.60
2022-11-20T17:50:31.315Z,2.40
2022-11-20T17:52:53.504Z,2.27
2022-11-20T17:55:15.760Z,2.43
2022-11-20T17:57:53.190Z,2.10
2022-11-20T18:00:17.153Z,2.50
2022-11-20T18:02:40.051Z,2.07
2022-11-20T18:05:02.522Z,2.40
2022-11-20T18:07:24.812Z,2.57
2022-11-20T18:09:47.038Z,2.60
2022-11-20T18:12:09.280Z,2.90
2022-11-20T18:14:36.241Z,2.47
2022-11-20T18:17:06.489Z,5.27
2022-11-20T18:19:32.722Z,2.90
2022-11-20T18:21:55.522Z,4.87
2022-11-20T18:24:17.854Z,4.10
2022-11-20T18:26:44.088Z,4.77
2022-11-20T18:29:07.506Z,5.33
2022-11-20T18:31:29.885Z,3.20
2022-11-20T18:33:54.440Z,4.33
2022-11-20T18:36:19.045Z,3.20
2022-11-20T18:38:47.616Z,3.27
2022-11-20T18:41:30.031Z,3.30
2022-11-20T18:44:10.824Z,3.10
2022-11-20T18:46:32.994Z,3.40
2022-11-20T18:48:55.233Z,4.37
2022-11-20T18:51:17.563Z,5.47
2022-11-20T18:53:44.363Z,3.50
2022-11-20T18:56:09.546Z,6.27
2022-11-20T18:58:31.886Z,7.77
2022-11-20T19:00:54.067Z,9.27
2022-11-20T19:03:16.534Z,10.53
2022-11-20T19:05:38.708Z,9.27
2022-11-20T19:08:00.968Z,7.87
2022-11-20T19:10:24.324Z,9.63
2022-11-20T19:12:46.607Z,4.87
2022-11-20T19:15:08.988Z,5.40
2022-11-20T19:17:31.252Z,5.13
2022-11-20T19:19:54.915Z,5.73
2022-11-20T19:22:17.525Z,5.37
2022-11-20T19:24:39.905Z,5.77
2022-11-20T19:27:02.666Z,7.20
2022-11-20T19:29:25.981Z,6.17
2022-11-20T19:31:49.312Z,9.00
2022-11-20T19:34:12.096Z,7.83
2022-11-20T19:36:35.425Z,6.57
2022-11-20T19:38:59.379Z,7.20
2022-11-20T19:41:28.936Z,7.97
2022-11-20T19:43:51.280Z,5.00
2022-11-20T19:46:13.495Z,5.30
2022-11-20T19:48:36.760Z,8.23
2022-11-20T19:50:59.169Z,7.27
2022-11-20T19:53:21.413Z,4.00
2022-11-20T19:55:43.703Z,5.10
2022-11-20T19:58:06.094Z,6.03
2022-11-20T20:00:32.825Z,7.93
2022-11-20T20:02:55.374Z,6.57
2022-11-20T20:05:17.649Z,7.73
2022-11-20T20:07:40.204Z,10.17
2022-11-20T20:10:02.689Z,13.40
2022-11-20T20:12:24.979Z,11.40
2022-11-20T20:14:47.204Z,6.43
2022-11-20T20:17:09.463Z,12.27
2022-11-20T20:19:31.873Z,8.37
2022-11-20T20:21:55.083Z,10.83
2022-11-20T20:24:17.310Z,12.63
2022-11-20T20:26:39.652Z,10.33
2022-11-20T20:29:02.451Z,8.17
2022-11-20T20:31:25.950Z,10.40
2022-11-20T20:33:48.203Z,9.93
2022-11-20T20:36:11.700Z,14.23
2022-11-20T20:38:34.402Z,10.07
2022-11-20T20:40:56.590Z,10.97
2022-11-20T20:43:19.079Z,13.10
2022-11-20T20:45:55.012Z,7.53
2022-11-20T20:48:18.133Z,18.00
2022-11-20T20:50:40.355Z,9.17
2022-11-20T20:53:02.571Z,6.13
2022-11-20T20:55:25.789Z,15.87
2022-11-20T20:57:48.040Z,11.33
2022-11-20T21:00:10.645Z,20.93
2022-11-20T21:02:33.207Z,16.30
2022-11-20T21:05:02.508Z,14.70
2022-11-20T21:07:26.129Z,23.43
2022-11-20T21:09:48.844Z,16.87
2022-11-20T21:12:40.147Z,15.57
2022-11-20T21:15:35.641Z,14.47
2022-11-20T21:17:59.981Z,15.63
2022-11-20T21:20:40.938Z,12.57
2022-11-20T21:23:08.578Z,13.27
2022-11-20T21:25:31.016Z,12.23
2022-11-20T21:27:53.669Z,10.93
2022-11-20T21:30:19.211Z,18.30
2022-11-20T21:32:41.606Z,10.97
2022-11-20T21:35:09.555Z,13.17
2022-11-20T21:37:37.114Z,15.27
2022-11-20T21:40:05.214Z,14.80
2022-11-20T21:45:07.527Z,9.70
2022-11-20T21:47:31.179Z,12.20
2022-11-20T21:49:53.818Z,12.33
2022-11-20T21:52:17.181Z,15.67
2022-11-20T21:54:40.835Z,13.73
2022-11-20T21:57:03.242Z,15.60
2022-11-20T21:59:25.623Z,11.67
2022-11-20T22:01:48.328Z,17.07
2022-11-20T22:04:14.495Z,15.20
2022-11-20T22:06:43.335Z,12.97
2022-11-20T22:09:13.201Z,17.37
2022-11-20T22:11:35.738Z,23.10
2022-11-20T22:14:17.116Z,15.00
2022-11-20T22:16:39.750Z,14.27
2022-11-20T22:19:03.744Z,15.60
2022-11-20T22:21:27.183Z,17.97
2022-11-20T22:23:49.737Z,15.83
2022-11-20T22:26:13.987Z,22.07
2022-11-20T22:28:36.602Z,17.67
2022-11-20T22:31:00.124Z,19.27
2022-11-20T22:33:35.856Z,15.97
2022-11-20T22:36:05.685Z,20.43
2022-11-20T22:38:29.699Z,12.87
2022-11-20T22:40:52.208Z,12.40
2022-11-20T22:43:15.516Z,18.13
2022-11-20T22:45:37.992Z,16.20
2022-11-20T22:48:00.459Z,14.90
2022-11-20T22:50:23.031Z,19.10
2022-11-20T22:52:45.286Z,13.97
2022-11-20T22:55:11.121Z,19.83
2022-11-20T22:57:37.458Z,8.40
2022-11-20T23:00:10.290Z,13.97
2022-11-20T23:02:33.818Z,9.93
2022-11-20T23:04:56.353Z,12.90
2022-11-20T23:07:30.488Z,13.70
2022-11-20T23:09:52.880Z,13.50
2022-11-20T23:12:15.200Z,16.97
2022-11-20T23:14:37.678Z,14.37
2022-11-20T23:17:14.994Z,11.83
2022-11-20T23:19:37.210Z,10.87
2022-11-20T23:21:59.431Z,15.53
2022-11-20T23:24:21.622Z,9.27
2022-11-20T23:26:46.957Z,11.57
2022-11-20T23:29:09.267Z,9.50
2022-11-20T23:31:33.553Z,8.27
2022-11-20T23:33:55.882Z,7.93
2022-11-20T23:36:18.262Z,13.07
2022-11-20T23:38:40.854Z,8.37
2022-11-20T23:41:03.242Z,7.30
2022-11-20T23:43:25.659Z,6.50
2022-11-20T23:45:49.055Z,8.50
2022-11-20T23:48:11.311Z,8.70
2022-11-20T23:50:33.546Z,7.10
2022-11-20T23:52:55.840Z,5.60
2022-11-20T23:55:18.066Z,7.67
2022-11-20T23:57:40.259Z,6.13
